createdAt,value
2017-10-10T00:00:09.079Z,0
2017-10-10T00:01:17.909Z,0
2017-10-10T00:02:26.740Z,0
2017-10-10T00:03:35.574Z,0
2017-10-10T00:04:44.408Z,0
2017-10-10T00:05:53.292Z,0
2017-10-10T00:07:02.124Z,0
2017-10-10T00:08:10.955Z,0
2017-10-10T00:09:20.139Z,0
2017-10-10T00:10:28.970Z,0
2017-10-10T00:11:37.860Z,0
2017-10-10T00:12:46.688Z,0
2017-10-10T00:13:55.521Z,0
2017-10-10T00:15:04.353Z,0
2017-10-10T00:16:13.188Z,0
2017-10-10T00:17:22.169Z,0
2017-10-10T00:18:31.002Z,0
2017-10-10T00:19:39.835Z,0
2017-10-10T00:20:48.671Z,0
2017-10-10T00:21:57.498Z,0
2017-10-10T00:23:06.379Z,0
2017-10-10T00:24:15.209Z,0
2017-10-10T00:25:24.045Z,0
2017-10-10T00:26:32.874Z,0
2017-10-10T00:27:41.709Z,0
2017-10-10T00:28:50.642Z,0
2017-10-10T00:29:59.474Z,0
2017-10-10T00:31:08.307Z,0
2017-10-10T00:32:17.142Z,0
2017-10-10T00:33:25.973Z,0
2017-10-10T00:34:35.105Z,0
2017-10-10T00:35:43.938Z,0
2017-10-10T00:36:53.123Z,0
2017-10-10T00:38:01.953Z,0
2017-10-10T00:39:10.785Z,0
2017-10-10T00:40:20.114Z,0
2017-10-10T00:41:28.946Z,0
2017-10-10T00:42:37.781Z,0
2017-10-10T00:43:46.615Z,0
2017-10-10T00:44:55.447Z,0
2017-10-10T00:46:04.931Z,0
2017-10-10T00:47:14.109Z,0
2017-10-10T00:48:22.945Z,0
2017-10-10T00:49:31.770Z,0
2017-10-10T00:50:40.601Z,0
2017-10-10T00:51:49.535Z,0
2017-10-10T00:52:58.367Z,0
2017-10-10T00:54:07.200Z,0
2017-10-10T00:55:16.032Z,0
2017-10-10T00:56:24.864Z,0
2017-10-10T00:57:33.744Z,0
2017-10-10T00:58:42.574Z,0
2017-10-10T00:59:51.407Z,0
2017-10-10T01:01:00.239Z,0
2017-10-10T01:02:09.074Z,0
2017-10-10T01:03:18.107Z,0
2017-10-10T01:04:26.940Z,0
2017-10-10T01:05:35.773Z,0
2017-10-10T01:06:44.603Z,0
2017-10-10T01:07:53.435Z,0
2017-10-10T01:09:02.468Z,0
2017-10-10T01:10:11.299Z,0
2017-10-10T01:11:20.135Z,0
2017-10-10T01:12:29.310Z,0
2017-10-10T01:13:38.140Z,0
2017-10-10T01:14:47.122Z,0
2017-10-10T01:15:55.954Z,0
2017-10-10T01:17:04.786Z,0
2017-10-10T01:18:13.620Z,0
2017-10-10T01:19:22.452Z,0
2017-10-10T01:20:31.435Z,0
2017-10-10T01:21:40.270Z,0
2017-10-10T01:22:49.101Z,0
2017-10-10T01:23:57.933Z,0
2017-10-10T01:25:06.766Z,0
2017-10-10T01:26:15.849Z,0
2017-10-10T01:27:24.681Z,0
2017-10-10T01:28:33.512Z,0
2017-10-10T01:29:42.345Z,0
2017-10-10T01:30:51.174Z,0
2017-10-10T01:32:00.055Z,0
2017-10-10T01:33:08.890Z,0
2017-10-10T01:34:18.068Z,0
2017-10-10T01:35:26.903Z,0
2017-10-10T01:36:36.079Z,0
2017-10-10T01:37:44.962Z,0
2017-10-10T01:38:53.794Z,0
2017-10-10T01:40:02.628Z,0
2017-10-10T01:41:11.467Z,0
2017-10-10T01:42:20.311Z,0
2017-10-10T01:43:29.879Z,0
2017-10-10T01:44:39.058Z,0
2017-10-10T01:45:47.888Z,0
2017-10-10T01:46:56.721Z,0
2017-10-10T01:48:05.554Z,0
2017-10-10T01:49:14.388Z,0
2017-10-10T01:50:23.220Z,0
2017-10-10T01:51:32.052Z,0
2017-10-10T01:52:40.885Z,0
2017-10-10T01:53:49.721Z,0
2017-10-10T01:54:58.856Z,0
2017-10-10T01:56:07.689Z,0
2017-10-10T01:57:16.520Z,0
2017-10-10T01:58:25.351Z,0
2017-10-10T01:59:34.183Z,0
2017-10-10T02:00:43.115Z,0
2017-10-10T02:01:51.948Z,0
2017-10-10T02:03:00.779Z,0
2017-10-10T02:04:09.613Z,0
2017-10-10T02:05:18.446Z,0
2017-10-10T02:06:27.578Z,0
2017-10-10T02:07:36.418Z,0
2017-10-10T02:08:45.250Z,0
2017-10-10T02:09:54.081Z,0
2017-10-10T02:11:02.914Z,0
2017-10-10T02:12:11.795Z,0
2017-10-10T02:13:20.627Z,0
2017-10-10T02:14:29.456Z,0
2017-10-10T02:15:38.287Z,0
2017-10-10T02:16:47.121Z,0
2017-10-10T02:17:56.006Z,0
2017-10-10T02:19:04.841Z,0
2017-10-10T02:20:13.672Z,0
2017-10-10T02:21:22.505Z,0
2017-10-10T02:22:31.338Z,0
2017-10-10T02:23:40.169Z,0
2017-10-10T02:24:49.002Z,0
2017-10-10T02:25:57.838Z,0
2017-10-10T02:27:06.667Z,0
2017-10-10T02:28:15.501Z,0
2017-10-10T02:29:24.582Z,0
2017-10-10T02:30:33.413Z,0
2017-10-10T02:31:42.249Z,0
2017-10-10T02:32:51.076Z,0
2017-10-10T02:33:59.911Z,0
2017-10-10T02:35:09.087Z,0
2017-10-10T02:36:17.925Z,0
2017-10-10T02:37:26.760Z,0
2017-10-10T02:38:35.588Z,0
2017-10-10T02:39:44.429Z,0
2017-10-10T02:40:53.251Z,0
2017-10-10T02:42:02.085Z,0
2017-10-10T02:43:10.919Z,0
2017-10-10T02:44:19.801Z,0
2017-10-10T02:45:28.636Z,0
2017-10-10T02:46:37.617Z,0
2017-10-10T02:47:46.449Z,0
2017-10-10T02:48:55.280Z,0
2017-10-10T02:50:04.112Z,0
2017-10-10T02:51:13.316Z,0
2017-10-10T02:52:22.197Z,0
2017-10-10T02:53:31.030Z,0
2017-10-10T02:54:39.863Z,0
2017-10-10T02:55:48.701Z,0
2017-10-10T02:56:57.531Z,0
2017-10-10T02:58:06.513Z,0
2017-10-10T02:59:15.352Z,0
2017-10-10T03:00:24.178Z,0
2017-10-10T03:01:33.010Z,0
2017-10-10T03:02:41.872Z,0
2017-10-10T03:03:51.213Z,0
2017-10-10T03:05:00.046Z,0
2017-10-10T03:06:09.228Z,0
2017-10-10T03:07:18.060Z,0
2017-10-10T03:08:26.892Z,0
2017-10-10T03:09:36.026Z,0
2017-10-10T03:10:44.860Z,0
2017-10-10T03:11:53.690Z,0
2017-10-10T03:13:02.522Z,0
2017-10-10T03:14:11.354Z,0
2017-10-10T03:15:20.584Z,0
2017-10-10T03:16:29.414Z,0
2017-10-10T03:17:38.247Z,0
2017-10-10T03:18:47.079Z,0
2017-10-10T03:19:55.912Z,0
2017-10-10T03:21:04.744Z,0
2017-10-10T03:22:13.576Z,0
2017-10-10T03:23:22.408Z,0
2017-10-10T03:24:31.241Z,0
2017-10-10T03:25:40.073Z,0
2017-10-10T03:26:49.004Z,0
2017-10-10T03:27:57.835Z,0
2017-10-10T03:29:06.667Z,0
2017-10-10T03:30:15.505Z,0
2017-10-10T03:31:25.028Z,0
2017-10-10T03:32:34.060Z,0
2017-10-10T03:33:42.892Z,0
2017-10-10T03:34:52.067Z,0
2017-10-10T03:36:00.896Z,0
2017-10-10T03:37:09.739Z,0
2017-10-10T03:38:18.709Z,0
2017-10-10T03:39:27.883Z,0
2017-10-10T03:40:36.717Z,0
2017-10-10T03:41:45.557Z,0
2017-10-10T03:42:54.383Z,0
2017-10-10T03:44:03.367Z,0
2017-10-10T03:45:12.200Z,0
2017-10-10T03:46:21.374Z,0
2017-10-10T03:47:30.210Z,0
2017-10-10T03:48:39.042Z,0
2017-10-10T03:49:48.028Z,0
2017-10-10T03:50:56.861Z,0
2017-10-10T03:52:05.697Z,0
2017-10-10T03:53:14.526Z,0
2017-10-10T03:54:23.360Z,0
2017-10-10T03:55:32.244Z,0
2017-10-10T03:56:41.075Z,0
2017-10-10T03:57:50.250Z,0
2017-10-10T03:58:59.090Z,0
2017-10-10T04:00:07.910Z,0
2017-10-10T04:01:16.795Z,0
2017-10-10T04:02:25.626Z,0
2017-10-10T04:03:34.460Z,0
2017-10-10T04:04:43.292Z,0
2017-10-10T04:05:52.123Z,0
2017-10-10T04:07:01.108Z,0
2017-10-10T04:08:09.942Z,0
2017-10-10T04:09:18.775Z,0
2017-10-10T04:10:27.601Z,0
2017-10-10T04:11:36.434Z,0
2017-10-10T04:12:45.568Z,0
2017-10-10T04:13:54.401Z,0
2017-10-10T04:15:03.240Z,0
2017-10-10T04:16:12.068Z,0
2017-10-10T04:17:20.899Z,0
2017-10-10T04:18:30.177Z,0
2017-10-10T04:19:39.009Z,0
2017-10-10T04:20:47.842Z,0
2017-10-10T04:21:56.674Z,0
2017-10-10T04:23:05.508Z,0
2017-10-10T04:24:14.395Z,0
2017-10-10T04:25:23.229Z,0
2017-10-10T04:26:32.061Z,0
2017-10-10T04:27:40.895Z,0
2017-10-10T04:28:49.728Z,0
2017-10-10T04:29:59.055Z,0
2017-10-10T04:31:07.886Z,0
2017-10-10T04:32:16.724Z,0
2017-10-10T04:33:25.554Z,0
2017-10-10T04:34:34.387Z,0
2017-10-10T04:35:43.471Z,0
2017-10-10T04:36:52.303Z,0
2017-10-10T04:38:01.136Z,0
2017-10-10T04:39:09.970Z,0
2017-10-10T04:40:18.800Z,0
2017-10-10T04:41:27.884Z,0
2017-10-10T04:42:36.718Z,0
2017-10-10T04:43:45.551Z,0
2017-10-10T04:44:54.383Z,0
2017-10-10T04:46:03.248Z,0
2017-10-10T04:47:12.201Z,0
2017-10-10T04:48:21.035Z,0
2017-10-10T04:49:29.868Z,0
2017-10-10T04:50:38.700Z,0
2017-10-10T04:51:47.532Z,0
2017-10-10T04:52:56.614Z,0
2017-10-10T04:54:05.445Z,0
2017-10-10T04:55:14.278Z,0
2017-10-10T04:56:23.110Z,0
2017-10-10T04:57:31.942Z,0
2017-10-10T04:58:41.023Z,0
2017-10-10T04:59:49.855Z,0
2017-10-10T05:00:58.690Z,0
2017-10-10T05:02:07.521Z,0
2017-10-10T05:03:16.354Z,0
2017-10-10T05:04:25.237Z,0
2017-10-10T05:05:34.066Z,0
2017-10-10T05:06:42.900Z,0
2017-10-10T05:07:51.730Z,0
2017-10-10T05:09:00.562Z,0
2017-10-10T05:10:09.499Z,0
2017-10-10T05:11:18.333Z,0
2017-10-10T05:12:27.170Z,0
2017-10-10T05:13:36.000Z,0
2017-10-10T05:14:44.843Z,0
2017-10-10T05:15:53.820Z,0
2017-10-10T05:17:02.651Z,0
2017-10-10T05:18:11.483Z,0
2017-10-10T05:19:20.316Z,0
2017-10-10T05:20:29.150Z,0
2017-10-10T05:21:37.985Z,0
2017-10-10T05:22:46.814Z,0
2017-10-10T05:23:55.993Z,0
2017-10-10T05:25:04.825Z,0
2017-10-10T05:26:13.659Z,0
2017-10-10T05:27:22.640Z,0
2017-10-10T05:28:31.475Z,0
2017-10-10T05:29:40.317Z,0
2017-10-10T05:30:49.151Z,0
2017-10-10T05:31:57.983Z,0
2017-10-10T05:33:07.019Z,0
2017-10-10T05:34:15.851Z,0
2017-10-10T05:35:24.690Z,0
2017-10-10T05:36:33.528Z,0
2017-10-10T05:37:42.353Z,0
2017-10-10T05:38:51.335Z,0
2017-10-10T05:40:00.174Z,0
2017-10-10T05:41:09.000Z,0
2017-10-10T05:42:17.835Z,0
2017-10-10T05:43:26.667Z,0
2017-10-10T05:44:35.516Z,0
2017-10-10T05:45:44.692Z,0
2017-10-10T05:46:53.524Z,0
2017-10-10T05:48:02.359Z,0
2017-10-10T05:49:11.193Z,0
2017-10-10T05:50:20.176Z,0
2017-10-10T05:51:29.008Z,0
2017-10-10T05:52:37.839Z,0
2017-10-10T05:53:47.015Z,5
2017-10-10T05:54:55.847Z,5
2017-10-10T05:56:04.728Z,5
2017-10-10T05:57:13.559Z,5
2017-10-10T05:58:22.391Z,5
2017-10-10T05:59:31.225Z,0
2017-10-10T06:00:40.059Z,0
2017-10-10T06:01:49.046Z,0
2017-10-10T06:02:57.877Z,0
2017-10-10T06:04:06.709Z,0
2017-10-10T06:05:15.539Z,0
2017-10-10T06:06:24.371Z,5
2017-10-10T06:07:33.650Z,5
2017-10-10T06:08:42.499Z,5
2017-10-10T06:09:51.315Z,5
2017-10-10T06:11:00.147Z,5
2017-10-10T06:12:08.982Z,5
2017-10-10T06:13:18.012Z,5
2017-10-10T06:14:26.844Z,5
2017-10-10T06:15:35.675Z,5
2017-10-10T06:16:44.507Z,5
2017-10-10T06:17:53.347Z,5
2017-10-10T06:19:02.575Z,5
2017-10-10T06:20:11.400Z,5
2017-10-10T06:21:20.234Z,5
2017-10-10T06:22:29.064Z,10
2017-10-10T06:23:37.897Z,10
2017-10-10T06:24:46.882Z,10
2017-10-10T06:25:55.715Z,10
2017-10-10T06:27:04.548Z,10
2017-10-10T06:28:13.384Z,10
2017-10-10T06:29:22.214Z,10
2017-10-10T06:30:31.347Z,15
2017-10-10T06:31:40.177Z,15
2017-10-10T06:32:49.008Z,20
2017-10-10T06:33:58.187Z,20
2017-10-10T06:35:07.030Z,20
2017-10-10T06:36:16.003Z,25
2017-10-10T06:37:24.834Z,25
2017-10-10T06:38:33.667Z,30
2017-10-10T06:39:42.501Z,30
2017-10-10T06:40:51.343Z,30
2017-10-10T06:42:00.670Z,35
2017-10-10T06:43:09.502Z,35
2017-10-10T06:44:18.336Z,30
2017-10-10T06:45:27.174Z,25
2017-10-10T06:46:36.010Z,30
2017-10-10T06:47:45.283Z,30
2017-10-10T06:48:54.119Z,25
2017-10-10T06:50:02.951Z,25
2017-10-10T06:51:11.785Z,20
2017-10-10T06:52:20.620Z,20
2017-10-10T06:53:29.553Z,20
2017-10-10T06:54:38.386Z,25
2017-10-10T06:55:47.220Z,30
2017-10-10T06:56:56.053Z,30
2017-10-10T06:58:04.886Z,30
2017-10-10T06:59:14.320Z,35
2017-10-10T07:00:23.157Z,35
2017-10-10T07:01:32.329Z,40
2017-10-10T07:02:41.161Z,35
2017-10-10T07:03:50.338Z,40
2017-10-10T07:04:59.370Z,45
2017-10-10T07:06:08.548Z,45
2017-10-10T07:07:17.380Z,45
2017-10-10T07:08:26.212Z,40
2017-10-10T07:09:35.045Z,35
2017-10-10T07:10:44.091Z,40
2017-10-10T07:11:52.914Z,40
2017-10-10T07:13:01.783Z,35
2017-10-10T07:14:10.579Z,35
2017-10-10T07:15:19.413Z,35
2017-10-10T07:16:28.348Z,35
2017-10-10T07:17:37.182Z,35
2017-10-10T07:18:46.016Z,35
2017-10-10T07:19:54.849Z,30
2017-10-10T07:21:04.023Z,30
2017-10-10T07:22:13.159Z,30
2017-10-10T07:23:21.993Z,25
2017-10-10T07:24:30.826Z,25
2017-10-10T07:25:39.662Z,25
2017-10-10T07:26:48.495Z,25
2017-10-10T07:27:57.731Z,25
2017-10-10T07:29:06.568Z,25
2017-10-10T07:30:15.401Z,30
2017-10-10T07:31:24.235Z,30
2017-10-10T07:32:33.069Z,30
2017-10-10T07:33:42.007Z,35
2017-10-10T07:34:50.834Z,35
2017-10-10T07:36:00.022Z,40
2017-10-10T07:37:08.858Z,45
2017-10-10T07:38:17.685Z,45
2017-10-10T07:39:26.620Z,45
2017-10-10T07:40:35.455Z,40
2017-10-10T07:41:44.291Z,40
2017-10-10T07:42:53.119Z,40
2017-10-10T07:44:01.952Z,35
2017-10-10T07:45:10.834Z,30
2017-10-10T07:46:19.675Z,25
2017-10-10T07:47:28.500Z,40
2017-10-10T07:48:37.332Z,50
2017-10-10T07:49:46.166Z,55
2017-10-10T07:50:55.000Z,65
2017-10-10T07:52:03.832Z,75
2017-10-10T07:53:12.668Z,70
2017-10-10T07:54:21.500Z,80
2017-10-10T07:55:30.331Z,80
2017-10-10T07:56:39.318Z,75
2017-10-10T07:57:48.151Z,75
2017-10-10T07:58:56.989Z,70
2017-10-10T08:00:05.818Z,80
2017-10-10T08:01:14.652Z,70
2017-10-10T08:02:23.533Z,75
2017-10-10T08:03:32.365Z,80
2017-10-10T08:04:41.198Z,80
2017-10-10T08:05:50.382Z,90
2017-10-10T08:06:59.213Z,90
2017-10-10T08:08:08.348Z,80
2017-10-10T08:09:17.179Z,100
2017-10-10T08:10:26.013Z,125
2017-10-10T08:11:34.847Z,190
2017-10-10T08:12:43.682Z,190
2017-10-10T08:13:52.611Z,145
2017-10-10T08:15:01.447Z,160
2017-10-10T08:16:10.274Z,190
2017-10-10T08:17:19.104Z,230
2017-10-10T08:18:27.937Z,235
2017-10-10T08:19:37.177Z,200
2017-10-10T08:20:46.010Z,210
2017-10-10T08:21:54.843Z,235
2017-10-10T08:23:04.020Z,255
2017-10-10T08:24:12.854Z,255
2017-10-10T08:25:21.787Z,225
2017-10-10T08:26:30.622Z,200
2017-10-10T08:27:39.468Z,205
2017-10-10T08:28:48.642Z,200
2017-10-10T08:29:57.474Z,230
2017-10-10T08:31:06.307Z,230
2017-10-10T08:32:15.487Z,210
2017-10-10T08:33:24.320Z,190
2017-10-10T08:34:33.152Z,205
2017-10-10T08:35:41.985Z,240
2017-10-10T08:36:50.868Z,350
2017-10-10T08:38:00.045Z,335
2017-10-10T08:39:08.879Z,285
2017-10-10T08:40:17.712Z,325
2017-10-10T08:41:26.546Z,390
2017-10-10T08:42:35.729Z,365
2017-10-10T08:43:44.563Z,380
2017-10-10T08:44:53.396Z,325
2017-10-10T08:46:02.231Z,270
2017-10-10T08:47:11.068Z,220
2017-10-10T08:48:20.053Z,200
2017-10-10T08:49:28.889Z,245
2017-10-10T08:50:37.723Z,310
2017-10-10T08:51:46.557Z,345
2017-10-10T08:52:55.390Z,345
2017-10-10T08:54:04.475Z,340
2017-10-10T08:55:13.309Z,310
2017-10-10T08:56:22.145Z,320
2017-10-10T08:57:30.978Z,335
2017-10-10T08:58:39.812Z,360
2017-10-10T08:59:48.695Z,345
2017-10-10T09:00:57.530Z,270
2017-10-10T09:02:06.364Z,285
2017-10-10T09:03:15.197Z,250
2017-10-10T09:04:24.031Z,290
2017-10-10T09:05:32.964Z,245
2017-10-10T09:06:42.150Z,265
2017-10-10T09:07:50.985Z,285
2017-10-10T09:08:59.821Z,295
2017-10-10T09:10:08.656Z,320
2017-10-10T09:11:17.590Z,265
2017-10-10T09:12:26.424Z,240
2017-10-10T09:13:35.258Z,245
2017-10-10T09:14:44.096Z,260
2017-10-10T09:15:52.931Z,245
2017-10-10T09:17:01.817Z,265
2017-10-10T09:18:11.001Z,335
2017-10-10T09:19:20.178Z,310
2017-10-10T09:20:29.014Z,355
2017-10-10T09:21:37.848Z,310
2017-10-10T09:22:46.735Z,255
2017-10-10T09:23:55.569Z,250
2017-10-10T09:25:04.408Z,280
2017-10-10T09:26:13.242Z,360
2017-10-10T09:27:22.426Z,375
2017-10-10T09:28:31.313Z,355
2017-10-10T09:29:40.152Z,380
2017-10-10T09:30:48.983Z,445
2017-10-10T09:31:57.818Z,390
2017-10-10T09:33:06.653Z,270
2017-10-10T09:34:15.588Z,325
2017-10-10T09:35:24.771Z,235
2017-10-10T09:36:33.600Z,310
2017-10-10T09:37:42.434Z,290
2017-10-10T09:38:51.270Z,305
2017-10-10T09:40:00.157Z,405
2017-10-10T09:41:08.990Z,360
2017-10-10T09:42:17.830Z,350
2017-10-10T09:43:26.663Z,375
2017-10-10T09:44:35.500Z,405
2017-10-10T09:45:44.485Z,375
2017-10-10T09:46:53.318Z,375
2017-10-10T09:48:02.156Z,310
2017-10-10T09:49:10.992Z,275
2017-10-10T09:50:19.828Z,335
2017-10-10T09:51:28.662Z,280
2017-10-10T09:52:37.496Z,240
2017-10-10T09:53:46.329Z,320
2017-10-10T09:54:55.166Z,355
2017-10-10T09:56:04.001Z,330
2017-10-10T09:57:13.086Z,325
2017-10-10T09:58:21.919Z,390
2017-10-10T09:59:30.763Z,415
2017-10-10T10:00:39.587Z,375
2017-10-10T10:01:48.422Z,235
2017-10-10T10:02:57.306Z,190
2017-10-10T10:04:06.141Z,245
2017-10-10T10:05:14.977Z,300
2017-10-10T10:06:23.811Z,355
2017-10-10T10:07:32.647Z,385
2017-10-10T10:08:41.736Z,345
2017-10-10T10:09:50.566Z,370
2017-10-10T10:10:59.400Z,370
2017-10-10T10:12:08.232Z,335
2017-10-10T10:13:17.071Z,330
2017-10-10T10:14:25.967Z,395
2017-10-10T10:15:34.792Z,420
2017-10-10T10:16:43.628Z,400
2017-10-10T10:17:52.460Z,380
2017-10-10T10:19:01.297Z,340
2017-10-10T10:20:10.282Z,260
2017-10-10T10:21:19.117Z,300
2017-10-10T10:22:27.954Z,370
2017-10-10T10:23:36.790Z,540
2017-10-10T10:24:45.969Z,520
2017-10-10T10:25:54.853Z,415
2017-10-10T10:27:04.038Z,430
2017-10-10T10:28:12.874Z,420
2017-10-10T10:29:21.709Z,395
2017-10-10T10:30:30.544Z,440
2017-10-10T10:31:39.780Z,450
2017-10-10T10:32:48.616Z,450
2017-10-10T10:33:57.449Z,360
2017-10-10T10:35:06.285Z,300
2017-10-10T10:36:15.120Z,290
2017-10-10T10:37:24.005Z,270
2017-10-10T10:38:32.840Z,290
2017-10-10T10:39:41.676Z,335
2017-10-10T10:40:50.507Z,355
2017-10-10T10:41:59.343Z,415
2017-10-10T10:43:08.227Z,480
2017-10-10T10:44:17.060Z,525
2017-10-10T10:45:25.893Z,515
2017-10-10T10:46:34.728Z,555
2017-10-10T10:47:43.563Z,505
2017-10-10T10:48:52.546Z,590
2017-10-10T10:50:01.380Z,585
2017-10-10T10:51:10.215Z,555
2017-10-10T10:52:19.052Z,560
2017-10-10T10:53:27.887Z,555
2017-10-10T10:54:36.821Z,605
2017-10-10T10:55:45.658Z,500
2017-10-10T10:56:54.841Z,440
2017-10-10T10:58:04.027Z,390
2017-10-10T10:59:12.863Z,405
2017-10-10T11:00:21.748Z,445
2017-10-10T11:01:30.582Z,485
2017-10-10T11:02:39.421Z,420
2017-10-10T11:03:48.248Z,445
2017-10-10T11:04:57.083Z,430
2017-10-10T11:06:06.222Z,455
2017-10-10T11:07:15.052Z,485
2017-10-10T11:08:23.887Z,450
2017-10-10T11:09:32.722Z,375
2017-10-10T11:10:41.560Z,485
2017-10-10T11:11:50.493Z,595
2017-10-10T11:12:59.333Z,650
2017-10-10T11:14:08.166Z,715
2017-10-10T11:15:17.003Z,600
2017-10-10T11:16:25.843Z,480
2017-10-10T11:17:34.728Z,460
2017-10-10T11:18:43.562Z,460
2017-10-10T11:19:52.398Z,425
2017-10-10T11:21:01.242Z,410
2017-10-10T11:22:10.076Z,435
2017-10-10T11:23:19.117Z,400
2017-10-10T11:24:27.948Z,445
2017-10-10T11:25:36.783Z,525
2017-10-10T11:26:45.621Z,560
2017-10-10T11:27:54.802Z,580
2017-10-10T11:29:03.841Z,610
2017-10-10T11:30:13.026Z,535
2017-10-10T11:31:21.863Z,510
2017-10-10T11:32:30.699Z,455
2017-10-10T11:33:39.532Z,325
2017-10-10T11:34:48.526Z,280
2017-10-10T11:35:57.362Z,285
2017-10-10T11:37:06.197Z,285
2017-10-10T11:38:15.036Z,270
2017-10-10T11:39:23.873Z,275
2017-10-10T11:40:32.804Z,260
2017-10-10T11:41:41.638Z,245
2017-10-10T11:42:50.474Z,265
2017-10-10T11:43:59.311Z,265
2017-10-10T11:45:08.148Z,255
2017-10-10T11:46:16.986Z,250
2017-10-10T11:47:26.163Z,255
2017-10-10T11:48:34.998Z,285
2017-10-10T11:49:43.843Z,300
2017-10-10T11:50:52.677Z,280
2017-10-10T11:52:01.568Z,260
2017-10-10T11:53:10.753Z,260
2017-10-10T11:54:19.588Z,295
2017-10-10T11:55:28.422Z,265
2017-10-10T11:56:37.259Z,255
2017-10-10T11:57:46.194Z,295
2017-10-10T11:58:55.033Z,350
2017-10-10T12:00:03.863Z,340
2017-10-10T12:01:12.700Z,320
2017-10-10T12:02:21.534Z,330
2017-10-10T12:03:30.473Z,295
2017-10-10T12:04:39.307Z,255
2017-10-10T12:05:48.140Z,185
2017-10-10T12:06:56.977Z,150
2017-10-10T12:08:05.816Z,205
2017-10-10T12:09:14.650Z,255
2017-10-10T12:10:23.485Z,290
2017-10-10T12:11:32.319Z,305
2017-10-10T12:12:41.163Z,320
2017-10-10T12:13:49.992Z,310
2017-10-10T12:14:59.228Z,235
2017-10-10T12:16:08.071Z,155
2017-10-10T12:17:16.901Z,125
2017-10-10T12:18:25.736Z,185
2017-10-10T12:19:35.266Z,240
2017-10-10T12:20:44.149Z,265
2017-10-10T12:21:52.983Z,240
2017-10-10T12:23:01.822Z,255
2017-10-10T12:24:10.657Z,275
2017-10-10T12:25:19.492Z,240
2017-10-10T12:26:28.577Z,260
2017-10-10T12:27:37.412Z,210
2017-10-10T12:28:46.247Z,200
2017-10-10T12:29:55.082Z,160
2017-10-10T12:31:03.919Z,90
2017-10-10T12:32:12.853Z,105
2017-10-10T12:33:21.695Z,250
2017-10-10T12:34:30.529Z,275
2017-10-10T12:35:39.364Z,210
2017-10-10T12:36:48.552Z,150
2017-10-10T12:37:58.144Z,120
2017-10-10T12:39:06.981Z,125
2017-10-10T12:40:15.818Z,120
2017-10-10T12:41:24.647Z,155
2017-10-10T12:42:33.479Z,260
2017-10-10T12:43:42.466Z,275
2017-10-10T12:44:51.300Z,235
2017-10-10T12:46:00.134Z,195
2017-10-10T12:47:08.967Z,220
2017-10-10T12:48:17.800Z,240
2017-10-10T12:49:26.733Z,265
2017-10-10T12:50:35.570Z,280
2017-10-10T12:51:44.405Z,270
2017-10-10T12:52:53.241Z,250
2017-10-10T12:54:02.073Z,260
2017-10-10T12:55:10.956Z,250
2017-10-10T12:56:19.792Z,270
2017-10-10T12:57:28.626Z,330
2017-10-10T12:58:37.462Z,370
2017-10-10T12:59:46.296Z,395
2017-10-10T13:00:55.182Z,325
2017-10-10T13:02:04.018Z,295
2017-10-10T13:03:13.203Z,205
2017-10-10T13:04:22.041Z,180
2017-10-10T13:05:30.875Z,140
2017-10-10T13:06:39.810Z,105
2017-10-10T13:07:48.647Z,100
2017-10-10T13:08:57.830Z,135
2017-10-10T13:10:06.666Z,70
2017-10-10T13:11:15.501Z,65
2017-10-10T13:12:24.385Z,115
2017-10-10T13:13:33.221Z,110
2017-10-10T13:14:42.056Z,95
2017-10-10T13:15:50.890Z,165
2017-10-10T13:17:00.074Z,120
2017-10-10T13:18:09.505Z,135
2017-10-10T13:19:18.342Z,145
2017-10-10T13:20:27.175Z,150
2017-10-10T13:21:36.010Z,150
2017-10-10T13:22:44.843Z,115
2017-10-10T13:23:53.727Z,135
2017-10-10T13:25:02.559Z,130
2017-10-10T13:26:11.393Z,155
2017-10-10T13:27:20.225Z,145
2017-10-10T13:28:29.057Z,150
2017-10-10T13:29:38.144Z,115
2017-10-10T13:30:46.978Z,135
2017-10-10T13:31:55.814Z,130
2017-10-10T13:33:04.650Z,140
2017-10-10T13:34:13.489Z,125
2017-10-10T13:35:22.416Z,115
2017-10-10T13:36:31.252Z,130
2017-10-10T13:37:40.084Z,110
2017-10-10T13:38:48.918Z,135
2017-10-10T13:39:57.751Z,95
2017-10-10T13:41:06.988Z,105
2017-10-10T13:42:15.829Z,115
2017-10-10T13:43:24.658Z,105
2017-10-10T13:44:33.493Z,115
2017-10-10T13:45:42.327Z,140
2017-10-10T13:46:51.211Z,135
2017-10-10T13:48:00.046Z,125
2017-10-10T13:49:08.879Z,130
2017-10-10T13:50:17.713Z,90
2017-10-10T13:51:26.547Z,90
2017-10-10T13:52:35.633Z,95
2017-10-10T13:53:44.464Z,140
2017-10-10T13:54:53.297Z,165
2017-10-10T13:56:02.130Z,160
2017-10-10T13:57:10.963Z,175
2017-10-10T13:58:19.999Z,215
2017-10-10T13:59:28.838Z,215
2017-10-10T14:00:37.670Z,200
2017-10-10T14:01:46.503Z,195
2017-10-10T14:02:55.339Z,195
2017-10-10T14:04:04.323Z,185
2017-10-10T14:05:13.157Z,160
2017-10-10T14:06:21.989Z,160
2017-10-10T14:07:30.825Z,180
2017-10-10T14:08:39.657Z,180
2017-10-10T14:09:48.490Z,180
2017-10-10T14:10:57.326Z,165
2017-10-10T14:12:06.159Z,150
2017-10-10T14:13:14.993Z,125
2017-10-10T14:14:23.825Z,115
2017-10-10T14:15:32.859Z,110
2017-10-10T14:16:41.692Z,115
2017-10-10T14:17:50.529Z,115
2017-10-10T14:18:59.364Z,95
2017-10-10T14:20:08.543Z,100
2017-10-10T14:21:17.375Z,95
2017-10-10T14:22:26.231Z,95
2017-10-10T14:23:35.038Z,90
2017-10-10T14:24:43.871Z,85
2017-10-10T14:25:52.703Z,75
2017-10-10T14:27:01.587Z,80
2017-10-10T14:28:10.424Z,75
2017-10-10T14:29:19.254Z,90
2017-10-10T14:30:28.087Z,90
2017-10-10T14:31:36.920Z,100
2017-10-10T14:32:45.805Z,95
2017-10-10T14:33:54.640Z,95
2017-10-10T14:35:03.479Z,90
2017-10-10T14:36:12.653Z,85
2017-10-10T14:37:21.489Z,90
2017-10-10T14:38:30.469Z,80
2017-10-10T14:39:39.302Z,80
2017-10-10T14:40:48.135Z,85
2017-10-10T14:41:56.971Z,80
2017-10-10T14:43:05.803Z,80
2017-10-10T14:44:14.885Z,95
2017-10-10T14:45:23.719Z,65
2017-10-10T14:46:32.551Z,50
2017-10-10T14:47:41.385Z,55
2017-10-10T14:48:50.565Z,60
2017-10-10T14:49:59.446Z,55
2017-10-10T14:51:08.280Z,60
2017-10-10T14:52:17.112Z,50
2017-10-10T14:53:25.945Z,40
2017-10-10T14:54:34.777Z,40
2017-10-10T14:55:43.663Z,30
2017-10-10T14:56:52.498Z,35
2017-10-10T14:58:01.329Z,30
2017-10-10T14:59:10.160Z,30
2017-10-10T15:00:18.994Z,35
2017-10-10T15:01:27.979Z,30
2017-10-10T15:02:36.812Z,30
2017-10-10T15:03:45.650Z,30
2017-10-10T15:04:54.481Z,30
2017-10-10T15:06:03.314Z,35
2017-10-10T15:07:12.448Z,35
2017-10-10T15:08:21.284Z,35
2017-10-10T15:09:30.120Z,35
2017-10-10T15:10:38.953Z,45
2017-10-10T15:11:47.789Z,40
2017-10-10T15:12:56.674Z,40
2017-10-10T15:14:05.507Z,50
2017-10-10T15:15:14.341Z,60
2017-10-10T15:16:23.176Z,50
2017-10-10T15:17:32.010Z,40
2017-10-10T15:18:40.995Z,40
2017-10-10T15:19:49.834Z,45
2017-10-10T15:20:58.661Z,45
2017-10-10T15:22:07.493Z,35
2017-10-10T15:23:16.671Z,25
2017-10-10T15:24:25.704Z,35
2017-10-10T15:25:34.538Z,35
2017-10-10T15:26:43.374Z,40
2017-10-10T15:27:52.206Z,40
2017-10-10T15:29:01.040Z,35
2017-10-10T15:30:10.271Z,40
2017-10-10T15:31:19.104Z,45
2017-10-10T15:32:27.943Z,40
2017-10-10T15:33:36.772Z,30
2017-10-10T15:34:45.608Z,25
2017-10-10T15:35:54.492Z,25
2017-10-10T15:37:03.670Z,25
2017-10-10T15:38:12.505Z,25
2017-10-10T15:39:21.341Z,20
2017-10-10T15:40:30.174Z,20
2017-10-10T15:41:39.056Z,20
2017-10-10T15:42:47.892Z,20
2017-10-10T15:43:56.727Z,20
2017-10-10T15:45:05.570Z,20
2017-10-10T15:46:14.390Z,20
2017-10-10T15:47:23.221Z,20
2017-10-10T15:48:32.055Z,20
2017-10-10T15:49:40.892Z,20
2017-10-10T15:50:49.724Z,20
2017-10-10T15:51:58.556Z,15
2017-10-10T15:53:07.589Z,15
2017-10-10T15:54:16.425Z,20
2017-10-10T15:55:25.610Z,25
2017-10-10T15:56:34.445Z,30
2017-10-10T15:57:43.279Z,30
2017-10-10T15:58:52.161Z,30
2017-10-10T16:00:00.996Z,25
2017-10-10T16:01:09.826Z,25
2017-10-10T16:02:18.659Z,20
2017-10-10T16:03:27.493Z,20
2017-10-10T16:04:36.627Z,15
2017-10-10T16:05:45.458Z,10
2017-10-10T16:06:54.292Z,15
2017-10-10T16:08:03.126Z,10
2017-10-10T16:09:11.958Z,10
2017-10-10T16:10:20.944Z,10
2017-10-10T16:11:29.778Z,5
2017-10-10T16:12:38.613Z,5
2017-10-10T16:13:47.796Z,5
2017-10-10T16:14:56.621Z,5
2017-10-10T16:16:05.608Z,5
2017-10-10T16:17:14.437Z,5
2017-10-10T16:18:23.270Z,5
2017-10-10T16:19:32.102Z,5
2017-10-10T16:20:40.934Z,5
2017-10-10T16:21:49.768Z,5
2017-10-10T16:22:58.601Z,5